Time;durP1;ratioP1;P1;durP2;ratioP2;P2;SDS_P1;SDS_P2;PMS_P1;PMS_P2;Temp;Humidity;BMP_temperature;BMP_pressure;BME280_temperature;BME280_humidity;BME280_pressure;Samples;Min_cycle;Max_cycle;Signal;HPM_P1;HPM_P2
2021/04/07 00:00:48;;;;;;;3.22;2.92;;;22.40;54.70;;;;;;5125753;28;20046;-35
2021/04/07 00:03:15;;;;;;;3.05;2.70;;;22.40;55.00;;;;;;5062013;28;20029;-35
2021/04/07 00:05:43;;;;;;;2.97;2.67;;;22.30;54.80;;;;;;5061899;28;20040;-35
2021/04/07 00:08:09;;;;;;;2.80;2.60;;;22.30;54.80;;;;;;5045817;28;20038;-35
2021/04/07 00:10:42;;;;;;;2.67;2.38;;;22.30;54.80;;;;;;5061999;28;20041;-34
2021/04/07 00:13:10;;;;;;;3.15;2.67;;;22.30;54.50;;;;;;5061755;28;20036;-35
2021/04/07 00:15:36;;;;;;;3.10;2.80;;;22.30;54.50;;;;;;5030289;28;20049;-34
2021/04/07 00:18:03;;;;;;;2.72;2.40;;;22.30;54.50;;;;;;5041918;28;20044;-34
2021/04/07 00:20:29;;;;;;;3.10;2.80;;;22.30;54.40;;;;;;5041991;28;20049;-34
2021/04/07 00:22:56;;;;;;;4.03;2.70;;;22.30;54.50;;;;;;5041576;28;20025;-34
2021/04/07 00:25:23;;;;;;;3.13;2.83;;;22.30;54.50;;;;;;5042966;28;20107;-35
2021/04/07 00:27:56;;;;;;;3.13;2.70;;;22.30;54.50;;;;;;5060185;28;20285;-34
2021/04/07 00:30:27;;;;;;;2.97;2.50;;;22.20;54.50;;;;;;5061736;28;20025;-34
2021/04/07 00:32:54;;;;;;;2.90;2.60;;;22.20;54.60;;;;;;5046902;28;20029;-35
2021/04/07 00:35:20;;;;;;;3.10;2.70;;;22.20;54.60;;;;;;5084131;28;20096;-34
2021/04/07 00:37:46;;;;;;;3.13;2.83;;;22.20;54.80;;;;;;5084049;28;20439;-34
2021/04/07 00:40:13;;;;;;;3.40;2.70;;;22.20;54.80;;;;;;5083776;28;20024;-35
2021/04/07 00:42:39;;;;;;;3.08;2.58;;;22.10;54.70;;;;;;5084134;28;20088;-34
2021/04/07 00:45:06;;;;;;;3.38;3.08;;;22.10;54.80;;;;;;5090465;28;20770;-35
2021/04/07 00:47:32;;;;;;;3.47;3.08;;;22.10;54.90;;;;;;5102937;28;20028;-37
2021/04/07 00:49:58;;;;;;;2.97;2.72;;;22.10;55.00;;;;;;5103068;28;20078;-34
2021/04/07 00:52:24;;;;;;;2.90;2.70;;;22.10;55.00;;;;;;5097955;28;20088;-34
2021/04/07 00:54:52;;;;;;;3.45;3.15;;;22.10;54.90;;;;;;5083483;28;20026;-34
2021/04/07 00:57:18;;;;;;;3.50;2.78;;;22.10;54.70;;;;;;5082545;28;20056;-34
2021/04/07 00:59:45;;;;;;;3.22;2.75;;;22.00;54.80;;;;;;5066074;28;20228;-34
2021/04/07 01:02:13;;;;;;;4.65;2.85;;;22.10;54.80;;;;;;5076666;28;20091;-34
2021/04/07 01:04:39;;;;;;;;;;;22.00;55.00;;;;;;5103005;28;20111;-34
2021/04/07 01:07:05;;;;;;;3.60;2.55;;;22.00;55.10;;;;;;5102434;28;19911;-35
2021/04/07 01:09:31;;;;;;;3.08;2.65;;;22.00;55.20;;;;;;5106485;28;20757;-35
2021/04/07 01:11:57;;;;;;;3.10;2.80;;;22.00;55.30;;;;;;5121358;28;20035;-34
2021/04/07 01:14:23;;;;;;;3.83;3.00;;;22.00;55.10;;;;;;5104929;28;20357;-34
2021/04/07 01:16:50;;;;;;;3.45;2.88;;;22.00;55.10;;;;;;5103777;28;20032;-34
2021/04/07 01:19:16;;;;;;;3.42;2.88;;;21.90;55.10;;;;;;5102549;28;20063;-34
2021/04/07 01:21:42;;;;;;;3.45;2.90;;;21.90;55.00;;;;;;5085445;28;20031;-39
2021/04/07 01:24:08;;;;;;;3.40;3.10;;;21.90;55.20;;;;;;5103395;28;20073;-35
2021/04/07 01:26:34;;;;;;;3.42;3.00;;;21.90;55.10;;;;;;5102894;28;20381;-34
2021/04/07 01:29:01;;;;;;;3.25;2.95;;;21.90;55.30;;;;;;5106300;28;20020;-34
2021/04/07 01:31:27;;;;;;;3.25;2.95;;;21.80;55.30;;;;;;5106814;28;20038;-35
2021/04/07 01:33:53;;;;;;;3.80;3.40;;;21.80;55.30;;;;;;5123781;28;20020;-34
2021/04/07 01:36:23;;;;;;;3.97;3.22;;;21.80;55.20;;;;;;5124144;28;20032;-34
2021/04/07 01:38:50;;;;;;;3.30;3.00;;;21.80;55.20;;;;;;5123738;28;20105;-34
2021/04/07 01:41:19;;;;;;;3.45;3.15;;;21.80;55.30;;;;;;5123752;28;20412;-34
2021/04/07 01:43:47;;;;;;;3.30;3.00;;;21.80;55.30;;;;;;5105671;28;20084;-34
2021/04/07 01:46:13;;;;;;;3.40;3.10;;;21.80;55.30;;;;;;5085748;28;20024;-34
2021/04/07 01:48:40;;;;;;;3.47;2.92;;;21.70;55.30;;;;;;5098551;28;20517;-35
2021/04/07 01:51:06;;;;;;;3.45;3.13;;;21.70;55.30;;;;;;5083174;28;20037;-34
2021/04/07 01:53:33;;;;;;;3.87;3.20;;;21.70;55.90;;;;;;5090772;28;20028;-34
2021/04/07 01:55:59;;;;;;;3.95;3.55;;;21.70;55.50;;;;;;5102818;28;20025;-34
2021/04/07 01:58:25;;;;;;;3.97;3.58;;;21.60;55.70;;;;;;5102033;28;20020;-34
2021/04/07 02:00:51;;;;;;;3.75;3.33;;;21.60;55.60;;;;;;5103389;28;20024;-34
2021/04/07 02:03:17;;;;;;;4.15;3.40;;;21.60;55.70;;;;;;5123498;28;20035;-34
2021/04/07 02:05:43;;;;;;;3.92;3.42;;;21.50;55.70;;;;;;5123267;28;20055;-34
2021/04/07 02:08:09;;;;;;;3.53;2.92;;;21.60;55.70;;;;;;5123477;28;20054;-34
2021/04/07 02:10:35;;;;;;;3.85;3.20;;;21.60;55.60;;;;;;5138221;28;20067;-34
2021/04/07 02:13:03;;;;;;;4.05;3.30;;;21.50;55.60;;;;;;5144187;28;20861;-35
2021/04/07 02:15:29;;;;;;;3.95;3.55;;;21.50;55.60;;;;;;5133731;28;20027;-34
2021/04/07 02:17:55;;;;;;;3.90;3.50;;;21.50;55.60;;;;;;5123180;27;20024;-34
2021/04/07 02:20:22;;;;;;;3.85;3.28;;;21.50;55.60;;;;;;5123511;28;20027;-34
2021/04/07 02:22:50;;;;;;;4.53;3.30;;;21.50;55.50;;;;;;5114739;28;20028;-34
2021/04/07 02:25:16;;;;;;;3.90;3.50;;;21.40;55.10;;;;;;5102776;28;20036;-35
2021/04/07 02:27:43;;;;;;;4.50;3.73;;;21.40;54.90;;;;;;5103173;28;20098;-34
2021/04/07 02:30:14;;;;;;;3.50;3.20;;;21.40;55.00;;;;;;5145974;27;20504;-34
2021/04/07 02:32:41;;;;;;;3.55;3.25;;;21.40;54.80;;;;;;5128385;28;20087;-34
2021/04/07 02:35:07;;;;;;;3.58;3.10;;;21.40;54.80;;;;;;5123108;28;20032;-34
2021/04/07 02:37:34;;;;;;;3.85;3.45;;;21.30;54.80;;;;;;5123958;28;20046;-34
2021/04/07 02:40:00;;;;;;;3.58;3.08;;;21.30;54.80;;;;;;5127185;28;20048;-34
2021/04/07 02:42:26;;;;;;;3.42;3.00;;;21.30;54.70;;;;;;5108695;28;20028;-34
2021/04/07 02:44:52;;;;;;;4.00;3.60;;;21.30;55.10;;;;;;5131462;27;20034;-34
2021/04/07 02:47:18;;;;;;;4.03;3.63;;;21.30;55.10;;;;;;5147322;27;20043;-34
2021/04/07 02:49:45;;;;;;;4.38;3.55;;;21.20;54.90;;;;;;5147468;27;20023;-34
2021/04/07 02:52:11;;;;;;;3.80;3.50;;;21.20;55.10;;;;;;5144418;27;20091;-34
2021/04/07 02:54:37;;;;;;;3.92;3.40;;;21.20;54.90;;;;;;5126691;28;20054;-34
2021/04/07 02:57:07;;;;;;;4.50;4.10;;;21.20;55.00;;;;;;5126507;28;20054;-34
2021/04/07 02:59:33;;;;;;;4.43;3.67;;;21.10;54.80;;;;;;5108526;28;20522;-34
2021/04/07 03:02:00;;;;;;;4.30;3.90;;;21.10;54.80;;;;;;5129110;27;20047;-34
2021/04/07 03:04:26;;;;;;;4.15;3.78;;;21.10;54.80;;;;;;5126694;28;20035;-34
2021/04/07 03:06:52;;;;;;;4.32;3.72;;;21.10;54.70;;;;;;5126233;28;20043;-34
2021/04/07 03:09:18;;;;;;;5.47;4.00;;;21.10;54.60;;;;;;5126182;28;20074;-34
2021/04/07 03:11:44;;;;;;;3.92;3.53;;;21.00;54.70;;;;;;5126059;28;20016;-34
2021/04/07 03:14:10;;;;;;;4.47;3.80;;;21.00;54.70;;;;;;5125970;28;20055;-34
2021/04/07 03:16:37;;;;;;;4.50;4.10;;;21.00;54.60;;;;;;5125876;28;20027;-34
2021/04/07 03:19:03;;;;;;;4.20;3.80;;;21.00;54.70;;;;;;5126014;28;20030;-34
2021/04/07 03:21:29;;;;;;;4.18;3.78;;;20.90;54.60;;;;;;5126119;28;20031;-34
2021/04/07 03:23:55;;;;;;;4.40;3.85;;;20.90;54.80;;;;;;5108266;28;20020;-34
2021/04/07 03:26:21;;;;;;;4.55;3.63;;;20.90;54.70;;;;;;5110227;27;20015;-34
2021/04/07 03:28:47;;;;;;;4.22;3.83;;;20.90;54.70;;;;;;5127090;27;20024;-34
2021/04/07 03:31:14;;;;;;;4.40;4.00;;;20.90;55.00;;;;;;5126138;28;20015;-34
2021/04/07 03:33:40;;;;;;;4.47;3.60;;;20.90;54.80;;;;;;5125818;27;20088;-33
2021/04/07 03:36:07;;;;;;;5.03;3.90;;;20.80;54.80;;;;;;5125594;28;20039;-34
2021/04/07 03:38:33;;;;;;;4.43;4.03;;;20.80;55.10;;;;;;5125737;28;20045;-34
2021/04/07 03:40:59;;;;;;;4.38;3.95;;;20.80;55.00;;;;;;5107387;28;20042;-34
2021/04/07 03:43:26;;;;;;;4.45;4.00;;;20.80;55.10;;;;;;5125735;28;20054;-34
2021/04/07 03:45:53;;;;;;;5.82;4.38;;;20.70;55.10;;;;;;5138270;27;20035;-34
2021/04/07 03:48:22;;;;;;;4.25;3.85;;;20.70;55.10;;;;;;5145809;27;20030;-34
2021/04/07 03:50:48;;;;;;;4.40;4.00;;;20.70;55.00;;;;;;5145460;27;20031;-34
2021/04/07 03:53:15;;;;;;;5.50;4.18;;;20.70;55.10;;;;;;5134165;27;20026;-34
2021/04/07 03:55:41;;;;;;;4.38;3.97;;;20.70;55.10;;;;;;5125494;28;20050;-34
2021/04/07 03:58:08;;;;;;;4.55;3.95;;;20.70;55.10;;;;;;5125103;28;20043;-34
2021/04/07 04:00:34;;;;;;;4.53;4.00;;;20.60;55.10;;;;;;5125568;28;20055;-34
2021/04/07 04:03:00;;;;;;;4.80;3.95;;;20.60;55.10;;;;;;5088809;28;20020;-34
2021/04/07 04:05:26;;;;;;;4.80;4.30;;;20.60;55.20;;;;;;5104751;28;20036;-34
2021/04/07 04:07:52;;;;;;;4.85;3.92;;;20.60;55.20;;;;;;5104755;28;20035;-34
2021/04/07 04:10:19;;;;;;;4.45;4.05;;;20.50;55.20;;;;;;5104522;28;20119;-34
2021/04/07 04:12:45;;;;;;;4.57;4.10;;;20.60;55.20;;;;;;5086608;28;20020;-39
2021/04/07 04:15:12;;;;;;;4.90;3.92;;;20.50;55.10;;;;;;5119457;27;20292;-34
2021/04/07 04:17:39;;;;;;;5.65;4.18;;;20.50;55.20;;;;;;5121760;28;20031;-34
2021/04/07 04:20:05;;;;;;;4.68;4.20;;;20.50;55.40;;;;;;5124993;28;20032;-34
2021/04/07 04:22:32;;;;;;;4.60;4.15;;;20.50;55.30;;;;;;5130836;27;20042;-34
2021/04/07 04:24:58;;;;;;;4.72;4.28;;;20.40;55.20;;;;;;5145551;27;20037;-34
2021/04/07 04:27:24;;;;;;;5.55;4.38;;;20.40;55.20;;;;;;5145188;27;20024;-33
2021/04/07 04:29:50;;;;;;;3.88;3.47;;;20.40;55.30;;;;;;5144646;27;20019;-34
2021/04/07 04:32:17;;;;;;;5.20;4.10;;;20.40;55.30;;;;;;5131866;27;20064;-33
2021/04/07 04:34:43;;;;;;;4.63;3.92;;;20.30;55.80;;;;;;5124586;28;20048;-34
2021/04/07 04:37:09;;;;;;;6.00;4.47;;;20.30;55.30;;;;;;5124381;28;20077;-34
2021/04/07 04:39:35;;;;;;;5.03;4.30;;;20.30;55.40;;;;;;5124350;28;20051;-34
2021/04/07 04:42:01;;;;;;;4.93;4.53;;;20.30;55.40;;;;;;5105855;28;20023;-34
2021/04/07 04:44:28;;;;;;;4.60;4.13;;;20.30;55.50;;;;;;5125835;27;20027;-34
2021/04/07 04:46:54;;;;;;;4.75;4.22;;;20.30;55.40;;;;;;5144489;27;20019;-34
2021/04/07 04:49:20;;;;;;;6.20;4.53;;;20.20;55.40;;;;;;5145094;27;20043;-34
2021/04/07 04:51:46;;;;;;;4.72;4.32;;;20.20;55.50;;;;;;5142192;27;20020;-33
2021/04/07 04:54:13;;;;;;;5.68;5.05;;;20.20;55.40;;;;;;5124236;27;20047;-34
2021/04/07 04:56:39;;;;;;;5.10;4.57;;;20.20;55.40;;;;;;5124252;28;20024;-34
2021/04/07 04:59:05;;;;;;;5.10;4.63;;;20.10;55.50;;;;;;5123857;28;20035;-34
2021/04/07 05:01:31;;;;;;;5.17;4.67;;;20.10;55.40;;;;;;5118269;28;20084;-34
2021/04/07 05:03:58;;;;;;;5.78;4.60;;;20.10;55.50;;;;;;5103688;28;20039;-34
2021/04/07 05:06:24;;;;;;;4.97;4.47;;;20.10;55.60;;;;;;5103752;28;20028;-35
2021/04/07 05:08:50;;;;;;;4.68;4.20;;;20.00;55.60;;;;;;5103218;28;20035;-34
2021/04/07 05:11:17;;;;;;;5.30;4.80;;;20.00;55.50;;;;;;5103618;28;20047;-34
2021/04/07 05:13:43;;;;;;;5.07;4.43;;;20.00;55.90;;;;;;5103521;28;20067;-34
2021/04/07 05:16:09;;;;;;;7.03;5.13;;;20.00;55.60;;;;;;5134664;27;20022;-34
2021/04/07 05:18:35;;;;;;;5.13;4.57;;;20.00;55.50;;;;;;5144130;27;20035;-34
2021/04/07 05:21:01;;;;;;;5.15;4.43;;;20.00;55.80;;;;;;5127185;27;20045;-34
2021/04/07 05:23:27;;;;;;;5.50;4.93;;;19.90;55.70;;;;;;5123693;28;20081;-33
2021/04/07 05:25:53;;;;;;;6.85;4.65;;;19.90;55.60;;;;;;5123510;28;20079;-34
2021/04/07 05:28:19;;;;;;;5.65;4.85;;;19.90;55.70;;;;;;5123565;28;20034;-34
2021/04/07 05:31:01;;;;;;;5.30;4.75;;;19.90;55.70;;;;;;5123779;28;20034;-34
2021/04/07 05:33:32;;;;;;;5.25;4.55;;;19.80;55.70;;;;;;5103197;28;20024;-34
2021/04/07 05:35:59;;;;;;;5.15;4.63;;;19.80;55.80;;;;;;5103397;28;20457;-34
2021/04/07 05:38:25;;;;;;;5.90;4.70;;;19.80;55.90;;;;;;5084812;28;20070;-34
2021/04/07 05:40:52;;;;;;;5.13;4.50;;;19.80;55.90;;;;;;5103037;28;20036;-34
2021/04/07 05:43:18;;;;;;;5.50;4.90;;;19.80;56.00;;;;;;5102978;28;20032;-34
2021/04/07 05:45:45;;;;;;;5.20;4.70;;;19.80;55.90;;;;;;5127277;28;20037;-34
2021/04/07 05:48:11;;;;;;;5.72;4.75;;;19.70;55.80;;;;;;5143858;28;20031;-34
2021/04/07 05:50:38;;;;;;;5.70;5.05;;;19.70;55.90;;;;;;5143958;28;20019;-34
2021/04/07 05:53:05;;;;;;;6.82;4.72;;;19.70;56.10;;;;;;5133411;28;20023;-34
2021/04/07 05:55:31;;;;;;;5.68;5.05;;;19.70;56.10;;;;;;5123451;28;20023;-34
2021/04/07 05:58:01;;;;;;;5.57;5.07;;;19.60;56.00;;;;;;5123194;28;20032;-34
2021/04/07 06:00:28;;;;;;;6.43;5.15;;;19.70;56.10;;;;;;5123466;28;20024;-34
2021/04/07 06:02:58;;;;;;;5.80;4.75;;;19.60;56.00;;;;;;5106045;28;20020;-33
2021/04/07 06:05:26;;;;;;;5.88;5.20;;;19.60;55.80;;;;;;5102898;28;20036;-33
2021/04/07 06:07:52;;;;;;;6.75;5.20;;;19.60;56.00;;;;;;5102559;28;20087;-33
2021/04/07 06:10:18;;;;;;;5.70;4.75;;;19.60;56.10;;;;;;5084258;28;20052;-34
2021/04/07 06:12:44;;;;;;;7.88;5.10;;;19.60;56.20;;;;;;5085919;28;20027;-34
2021/04/07 06:15:12;;;;;;;5.72;5.10;;;19.50;56.00;;;;;;5121767;27;20027;-33
2021/04/07 06:17:39;;;;;;;;;;;19.50;56.10;;;;;;5148120;27;20023;-33
2021/04/07 06:20:07;;;;;;;5.85;5.20;;;19.50;56.20;;;;;;5133575;27;19929;-33
2021/04/07 06:22:33;;;;;;;6.20;5.28;;;19.40;56.20;;;;;;5127972;27;20020;-33
2021/04/07 06:25:00;;;;;;;7.22;5.20;;;19.40;56.10;;;;;;5147621;27;20317;-33
2021/04/07 06:27:26;;;;;;;6.13;5.32;;;19.40;56.20;;;;;;5147800;27;20033;-33
2021/04/07 06:29:53;;;;;;;6.40;5.78;;;19.40;56.30;;;;;;5147463;27;20031;-33
2021/04/07 06:32:19;;;;;;;6.32;5.47;;;19.40;56.30;;;;;;5117116;28;20016;-33
2021/04/07 06:34:45;;;;;;;5.80;5.10;;;19.40;56.30;;;;;;5126907;28;20019;-33
2021/04/07 06:37:11;;;;;;;5.45;4.90;;;19.40;56.60;;;;;;5126891;28;20027;-33
2021/04/07 06:39:37;;;;;;;5.95;5.25;;;19.40;56.50;;;;;;5126447;27;20035;-33
2021/04/07 06:42:06;;;;;;;6.57;5.70;;;19.30;56.40;;;;;;5144978;27;20623;-33
2021/04/07 06:44:34;;;;;;;6.55;5.35;;;19.30;56.30;;;;;;5147566;27;20059;-33
2021/04/07 06:46:59;;;;;;;;;;;19.30;56.40;;;;;;5147806;27;20023;-33
2021/04/07 06:49:26;;;;;;;5.88;5.28;;;19.20;56.40;;;;;;5128535;27;19914;-34
2021/04/07 06:51:54;;;;;;;6.03;5.43;;;19.20;56.50;;;;;;5146924;27;20034;-33
2021/04/07 06:54:21;;;;;;;5.93;4.93;;;19.20;56.60;;;;;;5124400;27;20031;-33
2021/04/07 06:56:49;;;;;;;6.68;5.35;;;19.20;56.70;;;;;;5147129;27;20023;-34
2021/04/07 06:59:16;;;;;;;6.65;5.22;;;19.20;56.50;;;;;;5111646;27;20099;-33
2021/04/07 07:01:42;;;;;;;6.18;5.50;;;19.20;56.60;;;;;;5141370;27;20023;-33
2021/04/07 07:04:08;;;;;;;6.07;5.43;;;19.10;56.60;;;;;;5126383;28;20023;-33
2021/04/07 07:06:34;;;;;;;6.10;5.15;;;19.10;56.70;;;;;;5126163;28;20031;-34
2021/04/07 07:09:17;;;;;;;6.00;5.40;;;19.10;57.20;;;;;;5125795;28;20027;-33
2021/04/07 07:11:47;;;;;;;6.70;5.63;;;19.10;56.50;;;;;;5108030;28;20451;-34
2021/04/07 07:14:13;;;;;;;6.30;5.60;;;19.10;57.20;;;;;;5108395;28;20020;-33
2021/04/07 07:16:44;;;;;;;6.47;5.45;;;19.00;56.80;;;;;;5107818;28;20519;-34
2021/04/07 07:19:30;;;;;;;6.07;5.47;;;19.00;56.60;;;;;;5127258;27;20408;-33
2021/04/07 07:21:57;;;;;;;5.65;5.00;;;19.00;56.60;;;;;;5126718;27;20023;-33
2021/04/07 07:24:35;;;;;;;6.47;5.53;;;19.00;57.20;;;;;;5128015;27;20376;-34
2021/04/07 07:27:03;;;;;;;6.35;5.72;;;19.00;56.90;;;;;;5125613;28;20036;-33
2021/04/07 07:29:31;;;;;;;8.55;6.18;;;19.00;56.80;;;;;;5125570;28;20031;-33
2021/04/07 07:32:02;;;;;;;5.85;5.32;;;19.00;56.90;;;;;;5134979;27;20142;-33
2021/04/07 07:34:28;;;;;;;6.03;5.43;;;18.90;56.70;;;;;;5146374;27;20080;-33
2021/04/07 07:36:55;;;;;;;6.68;5.93;;;18.90;56.80;;;;;;5146318;27;20087;-33
2021/04/07 07:39:25;;;;;;;6.45;5.53;;;18.90;56.90;;;;;;5145751;27;20134;-33
2021/04/07 07:41:55;;;;;;;6.10;5.30;;;18.90;57.00;;;;;;5145992;27;20027;-33
2021/04/07 07:44:21;;;;;;;6.32;5.68;;;18.90;57.10;;;;;;5146119;27;20028;-33
2021/04/07 07:46:55;;;;;;;6.50;5.40;;;18.80;57.00;;;;;;5146005;27;20034;-33
2021/04/07 07:49:21;;;;;;;7.53;6.07;;;18.80;57.00;;;;;;5128093;27;20091;-33
2021/04/07 07:51:48;;;;;;;6.30;5.70;;;18.80;57.10;;;;;;5146008;27;20031;-33
2021/04/07 07:54:15;;;;;;;6.25;5.63;;;18.80;57.10;;;;;;5140754;27;20030;-33
2021/04/07 07:56:41;;;;;;;7.18;5.82;;;18.80;56.90;;;;;;5127725;27;20054;-33
2021/04/07 07:59:08;;;;;;;6.05;5.45;;;18.70;57.00;;;;;;5145706;27;20042;-33
2021/04/07 08:01:41;;;;;;;7.03;6.33;;;18.80;57.10;;;;;;5139817;27;20479;-33
2021/04/07 08:04:07;;;;;;;7.43;5.72;;;18.70;57.10;;;;;;5125191;28;20038;-33
2021/04/07 08:06:34;;;;;;;6.45;5.60;;;18.70;57.00;;;;;;5125153;28;20046;-33
2021/04/07 08:09:00;;;;;;;6.20;5.60;;;18.70;57.10;;;;;;5106612;28;20042;-33
2021/04/07 08:11:26;;;;;;;6.88;5.95;;;18.60;57.20;;;;;;5124568;28;20089;-33
2021/04/07 08:13:53;;;;;;;5.60;5.10;;;18.60;57.20;;;;;;5106855;28;20058;-33
2021/04/07 08:16:20;;;;;;;6.97;5.68;;;18.60;57.20;;;;;;5124957;28;20110;-33
2021/04/07 08:18:47;;;;;;;7.30;6.10;;;18.60;57.20;;;;;;5106187;28;20032;-33
2021/04/07 08:21:17;;;;;;;8.07;5.63;;;18.60;57.30;;;;;;5124709;28;20057;-33
2021/04/07 08:23:44;;;;;;;6.72;6.05;;;18.60;57.20;;;;;;5131063;27;20035;-34
2021/04/07 08:26:10;;;;;;;7.20;6.20;;;18.60;57.50;;;;;;5126931;27;20070;-33
2021/04/07 08:28:40;;;;;;;6.63;5.93;;;18.60;57.40;;;;;;5145149;27;20126;-34
2021/04/07 08:31:11;;;;;;;7.70;5.70;;;18.50;57.30;;;;;;5142948;27;20023;-33
2021/04/07 08:33:37;;;;;;;7.47;5.75;;;18.50;57.40;;;;;;5106153;28;20070;-33
2021/04/07 08:36:04;;;;;;;7.78;6.30;;;18.50;57.50;;;;;;5105398;28;20028;-33
2021/04/07 08:38:31;;;;;;;7.93;6.35;;;18.40;57.40;;;;;;5124208;28;20118;-33
2021/04/07 08:41:13;;;;;;;7.03;5.90;;;18.40;57.40;;;;;;5122071;28;20161;-33
2021/04/07 08:43:39;;;;;;;6.70;6.00;;;18.40;57.50;;;;;;5124580;27;20132;-33
2021/04/07 08:46:17;;;;;;;8.48;5.93;;;18.40;57.50;;;;;;5124262;28;20023;-33
2021/04/07 08:48:43;;;;;;;7.32;6.35;;;18.40;57.60;;;;;;5124359;28;20036;-33
2021/04/07 08:51:11;;;;;;;7.47;5.65;;;18.30;57.60;;;;;;5113661;27;20012;-33
2021/04/07 08:53:40;;;;;;;7.18;6.47;;;18.40;57.60;;;;;;5118651;27;20032;-33
2021/04/07 08:56:15;;;;;;;7.32;6.15;;;18.30;57.50;;;;;;5085391;28;20477;-33
2021/04/07 08:58:52;;;;;;;6.82;5.88;;;18.30;57.60;;;;;;5085372;28;20031;-33
2021/04/07 09:01:19;;;;;;;6.50;5.90;;;18.30;57.70;;;;;;5085150;28;20028;-33
2021/04/07 09:03:46;;;;;;;8.15;6.03;;;18.30;57.80;;;;;;5103536;28;20048;-33
2021/04/07 09:06:12;;;;;;;6.55;5.90;;;18.20;57.70;;;;;;5085489;28;20032;-33
2021/04/07 09:08:39;;;;;;;6.82;5.78;;;18.20;57.70;;;;;;5103545;28;20053;-33
2021/04/07 09:11:05;;;;;;;7.22;5.90;;;18.20;57.70;;;;;;5121444;27;20515;-33
2021/04/07 09:13:33;;;;;;;6.82;6.10;;;18.20;57.80;;;;;;5108216;27;20442;-33
2021/04/07 09:16:05;;;;;;;7.38;6.35;;;18.20;58.50;;;;;;5105431;28;20023;-33
2021/04/07 09:18:39;;;;;;;6.93;6.18;;;18.20;57.90;;;;;;5123784;28;20042;-33
2021/04/07 09:21:06;;;;;;;7.22;5.93;;;18.20;58.00;;;;;;5123568;28;20575;-33
2021/04/07 09:23:36;;;;;;;7.05;6.35;;;18.10;57.90;;;;;;5133583;27;20035;-33
2021/04/07 09:26:13;;;;;;;7.20;5.90;;;18.10;58.00;;;;;;5125824;27;20035;-33
2021/04/07 09:28:44;;;;;;;6.50;5.67;;;18.10;58.00;;;;;;5144383;27;20031;-33
2021/04/07 09:31:20;;;;;;;8.40;6.35;;;18.10;58.00;;;;;;5143983;27;20711;-33
2021/04/07 09:33:51;;;;;;;7.63;5.97;;;18.10;58.00;;;;;;5144359;27;20023;-33
2021/04/07 09:36:18;;;;;;;7.70;6.25;;;18.00;57.90;;;;;;5144068;27;20035;-33
2021/04/07 09:38:47;;;;;;;6.90;5.90;;;18.00;58.10;;;;;;5125471;27;20027;-33
2021/04/07 09:41:25;;;;;;;6.65;5.95;;;18.00;58.00;;;;;;5125852;27;20602;-33
2021/04/07 09:43:52;;;;;;;6.75;6.10;;;18.00;58.00;;;;;;5105337;28;20051;-33
2021/04/07 09:46:19;;;;;;;6.93;6.10;;;18.00;58.10;;;;;;5123314;28;20063;-34
2021/04/07 09:48:55;;;;;;;8.65;6.13;;;17.90;58.20;;;;;;5122971;28;20408;-33
2021/04/07 09:51:25;;;;;;;7.35;6.13;;;17.90;58.10;;;;;;5123302;28;20063;-33
2021/04/07 09:53:52;;;;;;;7.45;5.78;;;17.90;58.20;;;;;;5110916;28;20028;-33
2021/04/07 09:56:18;;;;;;;6.80;6.05;;;17.90;58.20;;;;;;5102996;28;20032;-33
2021/04/07 09:58:50;;;;;;;7.55;6.18;;;17.90;58.20;;;;;;5102917;28;20038;-33
2021/04/07 10:01:17;;;;;;;7.63;6.28;;;17.80;58.60;;;;;;5084596;28;20050;-33
2021/04/07 10:03:53;;;;;;;7.82;6.40;;;17.80;58.30;;;;;;5103050;28;20032;-33
2021/04/07 10:06:25;;;;;;;7.88;6.18;;;17.80;58.20;;;;;;5102922;28;20021;-33
2021/04/07 10:09:09;;;;;;;6.75;6.05;;;17.80;58.30;;;;;;5102559;28;20397;-33
2021/04/07 10:11:38;;;;;;;7.63;6.47;;;17.80;58.40;;;;;;5102419;28;20043;-33
2021/04/07 10:14:04;;;;;;;7.20;6.50;;;17.80;58.40;;;;;;5102812;28;20069;-33
2021/04/07 10:16:38;;;;;;;7.55;6.07;;;17.80;58.20;;;;;;5084685;28;20032;-33
2021/04/07 10:19:08;;;;;;;8.90;6.43;;;17.70;58.30;;;;;;5102721;28;20058;-33
2021/04/07 10:21:35;;;;;;;6.97;6.28;;;17.70;58.30;;;;;;5109905;28;20028;-33
2021/04/07 10:24:01;;;;;;;7.30;6.60;;;17.70;58.30;;;;;;5126623;28;20024;-33
2021/04/07 10:26:27;;;;;;;7.17;6.40;;;17.70;58.40;;;;;;5122932;28;20043;-33
2021/04/07 10:29:01;;;;;;;8.48;5.88;;;17.70;58.50;;;;;;5104839;28;20043;-33
2021/04/07 10:31:28;;;;;;;7.57;6.53;;;17.70;58.40;;;;;;5122683;28;20024;-33
2021/04/07 10:34:07;;;;;;;;;;;17.60;58.50;;;;;;5123376;28;20055;-33
2021/04/07 10:36:33;;;;;;;7.30;6.57;;;17.60;58.40;;;;;;5123171;28;19903;-33
2021/04/07 10:39:10;;;;;;;6.50;5.60;;;17.60;58.60;;;;;;5104463;28;20254;-33
2021/04/07 10:41:36;;;;;;;9.05;6.60;;;17.60;58.60;;;;;;5102047;28;20256;-33
2021/04/07 10:44:02;;;;;;;7.47;6.57;;;17.50;58.50;;;;;;5102598;28;20028;-33
2021/04/07 10:46:30;;;;;;;8.23;7.07;;;17.60;58.60;;;;;;5102313;28;20020;-33
2021/04/07 10:48:57;;;;;;;8.25;6.57;;;17.50;58.50;;;;;;5120466;28;20690;-34
2021/04/07 10:51:25;;;;;;;8.13;6.65;;;17.50;58.50;;;;;;5124894;28;20026;-32
2021/04/07 10:53:58;;;;;;;7.38;6.57;;;17.50;58.50;;;;;;5095162;28;20530;-33
2021/04/07 10:56:26;;;;;;;8.07;6.82;;;17.50;58.50;;;;;;5102171;28;20024;-33
2021/04/07 10:58:56;;;;;;;7.40;6.20;;;17.50;58.50;;;;;;5119318;28;20023;-33
2021/04/07 11:01:34;;;;;;;7.63;6.45;;;17.50;58.60;;;;;;5105986;28;20103;-33
2021/04/07 11:04:14;;;;;;;6.53;5.90;;;17.50;58.60;;;;;;5105704;28;20115;-33
2021/04/07 11:06:40;;;;;;;7.28;6.57;;;17.50;58.60;;;;;;5105958;28;20046;-33
2021/04/07 11:09:06;;;;;;;7.20;6.07;;;17.50;58.50;;;;;;5105687;28;20021;-33
2021/04/07 11:11:33;;;;;;;7.07;6.38;;;17.40;58.60;;;;;;5128059;27;20035;-33
2021/04/07 11:13:59;;;;;;;8.48;6.90;;;17.40;58.60;;;;;;5126057;28;20015;-32
2021/04/07 11:16:32;;;;;;;6.85;6.15;;;17.40;58.60;;;;;;5128933;27;20114;-33
2021/04/07 11:18:58;;;;;;;7.93;6.60;;;17.40;58.70;;;;;;5126020;28;20032;-35
2021/04/07 11:21:25;;;;;;;8.05;6.70;;;17.40;58.70;;;;;;5125999;28;20020;-33
2021/04/07 11:23:51;;;;;;;7.07;6.38;;;17.30;58.70;;;;;;5125880;28;20027;-33
2021/04/07 11:26:17;;;;;;;7.97;6.45;;;17.30;58.60;;;;;;5137019;27;20019;-32
2021/04/07 11:28:43;;;;;;;6.88;6.13;;;17.30;58.70;;;;;;5128243;27;20019;-33
2021/04/07 11:33:51;;;;;;;7.95;6.30;;;17.30;58.70;;;;;;5146184;27;20040;-33
2021/04/07 11:36:27;;;;;;;8.35;6.30;;;17.30;58.70;;;;;;5146427;27;20455;-33
2021/04/07 11:39:35;;;;;;;7.57;6.57;;;17.30;58.70;;;;;;5146234;27;20118;-33
2021/04/07 11:44:28;;;;;;;;;;;17.20;58.90;;;;;;5104302;28;20049;-33
2021/04/07 11:46:55;;;;;;;7.45;6.35;;;17.20;58.90;;;;;;5105351;28;19908;-33
2021/04/07 11:49:22;;;;;;;8.00;6.35;;;17.20;58.90;;;;;;5104927;28;20457;-33
2021/04/07 11:51:48;;;;;;;7.07;6.10;;;17.20;59.00;;;;;;5105068;28;20028;-33
2021/04/07 11:54:14;;;;;;;7.35;6.30;;;17.10;58.90;;;;;;5125110;28;20027;-33
2021/04/07 11:56:42;;;;;;;7.78;6.97;;;17.10;59.00;;;;;;5110716;28;20032;-32
2021/04/07 11:59:09;;;;;;;7.32;6.47;;;17.10;59.00;;;;;;5104745;28;20106;-33
2021/04/07 12:01:36;;;;;;;7.15;6.45;;;17.10;59.10;;;;;;5087066;28;20032;-32
2021/04/07 12:04:02;;;;;;;8.65;6.88;;;17.10;59.00;;;;;;5104452;28;20032;-32
2021/04/07 12:06:29;;;;;;;7.00;6.30;;;17.10;59.00;;;;;;5086743;28;20046;-41
2021/04/07 12:08:55;;;;;;;7.55;6.65;;;17.10;59.00;;;;;;5104617;28;20032;-33
2021/04/07 12:11:21;;;;;;;7.75;6.55;;;17.10;59.00;;;;;;5122065;28;20104;-33
2021/04/07 12:13:47;;;;;;;7.28;6.10;;;17.10;59.10;;;;;;5106553;28;20024;-33
2021/04/07 12:16:13;;;;;;;6.68;6.00;;;17.10;59.10;;;;;;5106840;28;20035;-33
2021/04/07 12:18:39;;;;;;;8.02;6.60;;;17.10;59.00;;;;;;5106481;28;20020;-33
2021/04/07 12:21:05;;;;;;;7.97;6.80;;;17.00;58.90;;;;;;5124879;28;20084;-33
2021/04/07 12:23:31;;;;;;;7.60;6.03;;;17.10;59.00;;;;;;5116254;28;20027;-33
2021/04/07 12:26:00;;;;;;;7.30;6.22;;;17.10;59.00;;;;;;5133109;27;20128;-32
2021/04/07 12:28:27;;;;;;;7.28;6.57;;;17.10;59.00;;;;;;5145568;27;20079;-33
2021/04/07 12:30:53;;;;;;;7.18;6.10;;;17.00;59.00;;;;;;5145284;27;20411;-33
2021/04/07 12:33:25;;;;;;;7.35;6.50;;;17.10;59.20;;;;;;5126241;27;20052;-33
2021/04/07 12:35:51;;;;;;;8.45;5.90;;;17.00;59.10;;;;;;5145310;27;20031;-33
2021/04/07 12:38:18;;;;;;;8.57;7.03;;;17.00;59.10;;;;;;5145209;27;20034;-33
2021/04/07 12:40:47;;;;;;;6.82;6.13;;;17.00;59.10;;;;;;5141553;27;20019;-33
2021/04/07 12:43:14;;;;;;;7.03;6.32;;;16.90;59.10;;;;;;5144753;27;20035;-32
2021/04/07 12:45:40;;;;;;;7.28;6.30;;;17.00;59.20;;;;;;5144967;27;20076;-33
2021/04/07 12:48:07;;;;;;;8.10;6.55;;;17.00;59.10;;;;;;5145064;27;20054;-33
2021/04/07 12:50:33;;;;;;;8.25;6.63;;;17.00;59.10;;;;;;5145081;27;20023;-33
2021/04/07 12:53:00;;;;;;;7.03;6.18;;;17.00;59.10;;;;;;5135007;27;20026;-33
2021/04/07 12:55:26;;;;;;;7.22;6.50;;;16.90;59.10;;;;;;5128093;27;20042;-33